createdAt,value
2022-12-15T00:00:21.267Z,93.53
2022-12-15T00:03:27.365Z,81.87
2022-12-15T00:06:13.535Z,76.20
2022-12-15T00:08:59.524Z,73.57
2022-12-15T00:11:45.395Z,81.70
2022-12-15T00:14:31.607Z,81.87
2022-12-15T00:17:17.736Z,83.50
2022-12-15T00:20:03.762Z,85.17
2022-12-15T00:22:49.360Z,89.63
2022-12-15T00:25:35.797Z,102.13
2022-12-15T00:28:21.557Z,95.50
2022-12-15T00:31:07.400Z,99.93
2022-12-15T00:33:52.986Z,89.13
2022-12-15T00:36:38.635Z,101.97
2022-12-15T00:39:05.974Z,89.80
2022-12-15T00:41:33.488Z,86.83
2022-12-15T00:44:00.709Z,93.43
2022-12-15T00:46:46.456Z,92.17
2022-12-15T00:49:32.281Z,90.00
2022-12-15T00:52:18.553Z,92.27
2022-12-15T00:55:04.295Z,83.87
2022-12-15T00:57:50.459Z,81.83
2022-12-15T01:00:36.277Z,84.47
2022-12-15T01:03:34.994Z,84.13
2022-12-15T01:06:31.443Z,78.43
2022-12-15T01:09:18.145Z,85.57
2022-12-15T01:12:04.894Z,85.73
2022-12-15T01:14:52.047Z,88.17
2022-12-15T01:17:38.396Z,80.80
2022-12-15T01:20:14.193Z,86.43
2022-12-15T01:22:42.541Z,83.00
2022-12-15T01:25:11.452Z,80.47
2022-12-15T01:27:38.669Z,80.30
2022-12-15T01:30:08.847Z,78.60
2022-12-15T01:32:36.119Z,82.53
2022-12-15T01:35:06.090Z,78.00
2022-12-15T01:37:35.236Z,77.57
2022-12-15T01:40:23.783Z,79.93
2022-12-15T01:42:51.660Z,79.60
2022-12-15T01:46:02.197Z,81.33
2022-12-15T01:48:52.346Z,78.47
2022-12-15T01:51:32.291Z,83.33
2022-12-15T01:54:17.275Z,80.00
2022-12-15T01:56:50.418Z,82.23
2022-12-15T01:59:27.131Z,88.83
2022-12-15T02:01:54.957Z,88.63
2022-12-15T02:04:23.848Z,86.20
2022-12-15T02:06:53.140Z,87.37
2022-12-15T02:09:24.594Z,84.20
2022-12-15T02:12:41.335Z,89.70
2022-12-15T02:15:29.455Z,86.37
2022-12-15T02:18:36.327Z,86.83
2022-12-15T02:21:39.214Z,86.80
2022-12-15T02:24:45.123Z,87.27
2022-12-15T02:28:04.349Z,85.73
2022-12-15T02:30:40.444Z,81.77
2022-12-15T02:33:14.860Z,88.43
2022-12-15T02:36:16.140Z,81.57
2022-12-15T02:38:43.594Z,90.17
2022-12-15T02:41:37.120Z,85.87
2022-12-15T02:44:17.884Z,84.83
2022-12-15T02:47:04.930Z,83.67
2022-12-15T02:49:59.851Z,87.73
2022-12-15T02:53:17.959Z,85.77
2022-12-15T02:55:57.398Z,87.53
2022-12-15T02:58:54.686Z,85.60
2022-12-15T03:01:35.350Z,91.67
2022-12-15T03:04:07.394Z,95.83
2022-12-15T03:06:35.041Z,89.07
2022-12-15T03:09:02.596Z,91.73
2022-12-15T03:11:29.961Z,90.57
2022-12-15T03:13:57.971Z,84.57
2022-12-15T03:16:25.288Z,92.87
2022-12-15T03:18:53.180Z,94.23
2022-12-15T03:21:20.519Z,90.87
2022-12-15T03:23:47.973Z,83.47
2022-12-15T03:26:15.167Z,88.70
2022-12-15T03:28:42.787Z,88.97
2022-12-15T03:31:10.015Z,79.47
2022-12-15T03:33:37.476Z,87.20
2022-12-15T03:36:05.381Z,79.17
2022-12-15T03:38:33.236Z,81.00
2022-12-15T03:41:00.412Z,75.93
2022-12-15T03:43:28.254Z,87.43
2022-12-15T03:45:55.842Z,90.87
2022-12-15T03:48:23.469Z,83.03
2022-12-15T03:50:50.645Z,85.47
2022-12-15T03:53:18.142Z,92.83
2022-12-15T03:55:45.355Z,91.93
2022-12-15T03:58:12.872Z,82.83
2022-12-15T04:00:40.122Z,85.67
2022-12-15T04:03:07.789Z,88.43
2022-12-15T04:05:35.821Z,87.43
2022-12-15T04:08:03.913Z,82.80
2022-12-15T04:10:34.957Z,84.57
2022-12-15T04:13:11.244Z,87.80
2022-12-15T04:15:40.423Z,95.97
2022-12-15T04:18:11.106Z,95.80
2022-12-15T04:20:40.396Z,89.67
2022-12-15T04:23:08.620Z,87.70
2022-12-15T04:25:56.151Z,95.03
2022-12-15T04:28:42.424Z,91.93
2022-12-15T04:31:37.327Z,90.50
2022-12-15T04:34:29.905Z,86.73
2022-12-15T04:37:16.480Z,97.07
2022-12-15T04:40:07.713Z,90.20
2022-12-15T04:42:59.429Z,86.87
2022-12-15T04:45:45.260Z,93.37
2022-12-15T04:48:31.969Z,85.57
2022-12-15T04:51:18.028Z,91.60
2022-12-15T04:54:04.775Z,95.97
2022-12-15T04:56:51.697Z,85.07
2022-12-15T04:59:37.497Z,95.40
2022-12-15T05:02:23.504Z,87.23
2022-12-15T05:05:09.495Z,92.77
2022-12-15T05:07:55.478Z,89.37
2022-12-15T05:10:40.924Z,87.73
2022-12-15T05:13:28.108Z,80.87
2022-12-15T05:16:13.843Z,86.07
2022-12-15T05:19:00.003Z,83.93
2022-12-15T05:21:45.629Z,83.90
2022-12-15T05:24:31.578Z,88.13
2022-12-15T05:27:17.425Z,87.03
2022-12-15T05:30:03.137Z,108.07
2022-12-15T05:32:33.423Z,97.20
2022-12-15T05:35:01.628Z,98.60
2022-12-15T05:37:29.006Z,89.83
2022-12-15T05:39:56.523Z,101.93
2022-12-15T05:42:23.733Z,94.80
2022-12-15T05:44:51.268Z,106.03
2022-12-15T05:47:18.433Z,99.13
2022-12-15T05:49:45.950Z,102.90
2022-12-15T05:52:13.249Z,109.23
2022-12-15T05:54:40.729Z,114.10
2022-12-15T05:57:08.226Z,120.80
2022-12-15T05:59:35.770Z,114.17
2022-12-15T06:02:03.051Z,118.00
2022-12-15T06:04:30.735Z,108.10
2022-12-15T06:06:57.993Z,103.33
2022-12-15T06:09:25.447Z,96.83
2022-12-15T06:11:52.673Z,112.60
2022-12-15T06:14:20.281Z,105.37
2022-12-15T06:16:50.881Z,99.20
2022-12-15T06:19:20.230Z,95.53
2022-12-15T06:21:47.761Z,90.10
2022-12-15T06:24:15.379Z,88.93
2022-12-15T06:26:42.874Z,89.90
2022-12-15T06:29:13.342Z,86.80
2022-12-15T06:31:42.904Z,90.90
2022-12-15T06:34:16.618Z,89.80
2022-12-15T06:36:44.539Z,89.47
2022-12-15T06:39:15.315Z,88.83
2022-12-15T06:41:43.858Z,89.90
2022-12-15T06:44:16.040Z,92.13
2022-12-15T06:46:45.829Z,91.37
2022-12-15T06:49:14.687Z,95.60
2022-12-15T06:51:42.912Z,99.50
2022-12-15T06:54:11.312Z,84.77
2022-12-15T06:56:39.371Z,93.67
2022-12-15T06:59:08.524Z,98.03
2022-12-15T07:01:36.095Z,104.40
2022-12-15T07:04:05.813Z,98.83
2022-12-15T07:06:36.858Z,92.23
2022-12-15T07:09:08.461Z,95.60
2022-12-15T07:11:36.142Z,93.37
2022-12-15T07:14:03.959Z,90.87
2022-12-15T07:16:31.682Z,97.60
2022-12-15T07:18:59.363Z,94.37
2022-12-15T07:21:26.638Z,90.93
2022-12-15T07:23:56.249Z,102.63
2022-12-15T07:26:25.217Z,109.43
2022-12-15T07:28:53.941Z,106.17
2022-12-15T07:31:22.375Z,99.50
2022-12-15T07:33:52.385Z,98.20
2022-12-15T07:36:20.598Z,90.13
2022-12-15T07:38:50.704Z,100.03
2022-12-15T07:41:19.957Z,86.03
2022-12-15T07:43:48.056Z,91.70
2022-12-15T07:46:16.615Z,85.00
2022-12-15T07:48:44.304Z,99.53
2022-12-15T07:51:20.313Z,108.37
2022-12-15T07:53:52.310Z,103.73
2022-12-15T07:56:20.753Z,100.73
2022-12-15T07:58:49.570Z,101.73
2022-12-15T08:01:18.684Z,98.77
2022-12-15T08:03:46.548Z,96.77
2022-12-15T08:06:15.305Z,100.27
2022-12-15T08:08:50.398Z,100.90
2022-12-15T08:11:22.142Z,104.63
2022-12-15T08:14:02.595Z,97.77
2022-12-15T08:16:31.552Z,88.47
2022-12-15T08:18:59.141Z,80.33
2022-12-15T08:21:26.475Z,85.53
2022-12-15T08:23:54.367Z,84.50
2022-12-15T08:26:26.565Z,89.13
2022-12-15T08:28:55.863Z,94.23
2022-12-15T08:31:24.591Z,87.20
2022-12-15T08:33:52.472Z,89.00
2022-12-15T08:36:20.616Z,84.90
2022-12-15T08:38:48.327Z,82.93
2022-12-15T08:41:23.299Z,74.60
2022-12-15T08:43:52.235Z,77.57
2022-12-15T08:46:23.557Z,73.27
2022-12-15T08:48:53.038Z,85.00
2022-12-15T08:51:22.481Z,81.03
2022-12-15T08:53:50.253Z,76.27
2022-12-15T08:56:20.855Z,72.97
2022-12-15T08:58:51.233Z,73.87
2022-12-15T09:01:24.018Z,71.97
2022-12-15T09:03:54.505Z,74.47
2022-12-15T09:06:26.439Z,74.50
2022-12-15T09:09:00.873Z,83.87
2022-12-15T09:11:29.958Z,75.82
2022-12-15T09:13:58.327Z,78.97
2022-12-15T09:16:28.023Z,74.70
2022-12-15T09:18:58.936Z,71.43
2022-12-15T09:21:29.604Z,71.00
2022-12-15T09:24:01.885Z,80.67
2022-12-15T09:26:33.158Z,77.97
2022-12-15T09:29:02.192Z,86.70
2022-12-15T09:31:33.651Z,79.57
2022-12-15T09:34:02.438Z,73.00
2022-12-15T09:36:33.013Z,75.40
2022-12-15T09:39:02.663Z,76.70
2022-12-15T09:41:36.431Z,80.60
2022-12-15T09:44:21.425Z,76.75
2022-12-15T09:47:36.953Z,81.40
2022-12-15T09:50:11.004Z,82.07
2022-12-15T09:53:00.206Z,73.70
2022-12-15T09:55:33.106Z,75.07
2022-12-15T09:58:16.306Z,85.63
2022-12-15T10:00:56.718Z,82.13
2022-12-15T10:03:58.718Z,75.97
2022-12-15T10:06:36.990Z,70.15
2022-12-15T10:09:28.001Z,62.42
2022-12-15T10:12:15.545Z,68.53
2022-12-15T10:15:01.218Z,119.10
2022-12-15T10:17:52.239Z,124.80
2022-12-15T10:20:30.163Z,147.57
2022-12-15T10:23:15.185Z,120.97
2022-12-15T10:25:59.859Z,91.57
2022-12-15T10:29:03.471Z,69.65
2022-12-15T10:32:00.268Z,75.57
2022-12-15T10:34:38.128Z,82.55
2022-12-15T10:37:06.978Z,73.30
2022-12-15T10:39:47.393Z,77.32
2022-12-15T10:42:24.689Z,71.85
2022-12-15T10:44:56.498Z,71.20
2022-12-15T10:47:27.989Z,69.22
2022-12-15T10:50:24.078Z,71.35
2022-12-15T10:52:52.333Z,83.65
2022-12-15T10:55:38.121Z,87.70
2022-12-15T10:58:20.794Z,80.43
2022-12-15T11:01:07.043Z,70.38
2022-12-15T11:03:39.158Z,74.95
2022-12-15T11:06:26.457Z,67.65
2022-12-15T11:08:57.707Z,75.05
2022-12-15T11:11:47.146Z,61.97
2022-12-15T11:14:19.848Z,64.93
2022-12-15T11:16:59.312Z,66.88
2022-12-15T11:19:47.495Z,67.93
2022-12-15T11:22:38.751Z,70.00
2022-12-15T11:25:25.136Z,68.53
2022-12-15T11:27:59.312Z,78.18
2022-12-15T11:30:45.381Z,69.97
2022-12-15T11:33:13.296Z,64.53
2022-12-15T11:35:46.652Z,62.88
2022-12-15T11:38:40.193Z,70.75
2022-12-15T11:41:43.552Z,59.30
2022-12-15T11:44:16.467Z,63.13
2022-12-15T11:46:54.601Z,60.88
2022-12-15T11:50:01.894Z,62.77
2022-12-15T11:53:06.834Z,80.13
2022-12-15T11:55:49.799Z,72.95
2022-12-15T11:58:41.095Z,68.45
2022-12-15T12:01:36.768Z,64.50
2022-12-15T12:04:35.839Z,64.85
2022-12-15T12:07:20.791Z,61.20
2022-12-15T12:10:15.655Z,62.20
2022-12-15T12:13:00.510Z,63.67
2022-12-15T12:16:01.902Z,63.95
2022-12-15T12:18:50.613Z,64.75
2022-12-15T12:21:35.088Z,63.67
2022-12-15T12:24:16.403Z,68.78
2022-12-15T12:26:59.520Z,63.67
2022-12-15T12:29:45.408Z,75.93
2022-12-15T12:33:05.444Z,86.10
2022-12-15T12:35:48.937Z,66.13
2022-12-15T12:38:25.157Z,64.60
2022-12-15T12:41:31.928Z,76.30
2022-12-15T12:44:31.043Z,71.45
2022-12-15T12:47:11.949Z,88.10
2022-12-15T12:50:02.194Z,75.95
2022-12-15T12:52:38.216Z,74.63
2022-12-15T12:55:17.254Z,75.72
2022-12-15T12:57:46.330Z,65.95
2022-12-15T13:00:18.061Z,71.78
2022-12-15T13:03:16.572Z,71.18
2022-12-15T13:05:48.867Z,65.97
2022-12-15T13:08:50.816Z,68.45
2022-12-15T13:11:51.693Z,79.03
2022-12-15T13:14:39.394Z,68.20
2022-12-15T13:17:27.962Z,73.60
2022-12-15T13:20:01.603Z,72.63
2022-12-15T13:22:36.922Z,67.88
2022-12-15T13:25:53.643Z,76.05
2022-12-15T13:28:40.812Z,68.95
2022-12-15T13:31:21.055Z,77.68
2022-12-15T13:33:52.396Z,71.18
2022-12-15T13:36:41.121Z,63.25
2022-12-15T13:39:17.463Z,73.78
2022-12-15T13:45:05.102Z,69.47
2022-12-15T13:47:33.970Z,72.20
2022-12-15T13:50:09.317Z,61.72
2022-12-15T13:55:51.037Z,58.88
2022-12-15T13:58:21.705Z,53.87
2022-12-15T14:00:55.578Z,64.35
2022-12-15T14:03:24.672Z,54.85
2022-12-15T14:05:59.738Z,47.50
2022-12-15T14:08:30.983Z,48.05
2022-12-15T14:16:37.766Z,66.10
2022-12-15T14:19:17.999Z,76.75
2022-12-15T14:21:59.549Z,65.20
2022-12-15T14:24:46.370Z,69.43
2022-12-15T14:27:29.185Z,83.07
2022-12-15T14:30:32.990Z,81.55
2022-12-15T14:33:16.341Z,79.70
2022-12-15T14:35:51.150Z,81.87
2022-12-15T14:38:33.132Z,71.80
2022-12-15T14:41:04.220Z,73.80
2022-12-15T14:43:40.189Z,78.93
2022-12-15T14:46:24.731Z,82.63
2022-12-15T14:49:06.108Z,89.05
2022-12-15T14:51:47.060Z,76.27
2022-12-15T14:54:32.608Z,73.23
2022-12-15T14:57:16.195Z,62.73
2022-12-15T14:59:48.724Z,55.37
2022-12-15T15:02:26.880Z,69.97
2022-12-15T15:03:05.770Z,51.23
2022-12-15T15:03:11.749Z,62.55
2022-12-15T15:05:03.519Z,60.43
2022-12-15T15:07:38.075Z,61.27
2022-12-15T15:10:29.338Z,57.77
2022-12-15T15:12:56.945Z,56.93
2022-12-15T15:15:26.948Z,63.80
2022-12-15T15:17:59.511Z,71.77
2022-12-15T15:20:37.895Z,94.70
2022-12-15T15:23:08.388Z,85.60
2022-12-15T15:25:49.475Z,73.30
2022-12-15T15:28:20.503Z,70.35
2022-12-15T15:30:50.780Z,72.37
2022-12-15T15:33:19.934Z,72.63
2022-12-15T15:36:06.534Z,69.18
2022-12-15T15:38:39.853Z,80.03
2022-12-15T15:41:33.308Z,73.28
2022-12-15T15:44:02.592Z,69.40
2022-12-15T15:46:36.022Z,70.73
2022-12-15T15:49:13.231Z,87.67
2022-12-15T15:51:41.192Z,99.73
2022-12-15T15:54:16.687Z,121.90
2022-12-15T15:56:44.083Z,118.43
2022-12-15T15:59:15.316Z,138.10
2022-12-15T16:01:45.159Z,152.03
2022-12-15T16:04:12.986Z,127.20
2022-12-15T16:06:46.789Z,110.47
2022-12-15T16:09:16.920Z,98.72
2022-12-15T16:11:46.605Z,82.97
2022-12-15T16:14:17.364Z,73.30
2022-12-15T16:16:45.891Z,73.65
2022-12-15T16:19:13.559Z,79.50
2022-12-15T16:21:43.063Z,78.07
2022-12-15T16:24:17.795Z,72.73
2022-12-15T16:26:50.640Z,68.47
2022-12-15T16:29:21.747Z,64.37
2022-12-15T16:31:49.587Z,69.13
2022-12-15T16:34:17.619Z,66.73
2022-12-15T16:36:45.379Z,72.05
2022-12-15T16:39:34.810Z,76.43
2022-12-15T16:42:02.933Z,76.40
2022-12-15T16:44:31.106Z,70.37
2022-12-15T16:46:59.550Z,74.23
2022-12-15T16:49:33.840Z,73.70
2022-12-15T16:52:05.612Z,71.53
2022-12-15T16:54:33.273Z,72.30
2022-12-15T16:57:00.567Z,79.57
2022-12-15T16:59:36.272Z,81.13
2022-12-15T17:02:17.303Z,80.57
2022-12-15T17:04:44.985Z,72.73
2022-12-15T17:07:20.091Z,94.80
2022-12-15T17:09:50.504Z,91.40
2022-12-15T17:12:18.382Z,97.17
2022-12-15T17:14:46.336Z,110.03
2022-12-15T17:17:19.509Z,103.70
2022-12-15T17:20:19.652Z,118.13
2022-12-15T17:22:36.415Z,113.97
2022-12-15T17:25:04.348Z,123.10
2022-12-15T17:27:32.012Z,109.47
2022-12-15T17:30:01.453Z,117.13
2022-12-15T17:32:28.761Z,112.53
2022-12-15T17:34:56.750Z,108.53
2022-12-15T17:37:26.186Z,111.63
2022-12-15T17:39:56.893Z,121.43
2022-12-15T17:42:24.159Z,125.33
2022-12-15T17:44:51.971Z,118.57
2022-12-15T17:47:19.580Z,117.40
2022-12-15T17:49:47.531Z,120.40
2022-12-15T17:52:28.463Z,113.23
2022-12-15T17:54:57.357Z,120.43
2022-12-15T17:57:25.666Z,111.87
2022-12-15T17:59:53.839Z,105.20
2022-12-15T18:02:21.206Z,110.03
2022-12-15T18:04:48.802Z,98.93
2022-12-15T18:07:22.992Z,116.37
2022-12-15T18:09:52.501Z,120.10
2022-12-15T18:12:26.495Z,115.00
2022-12-15T18:14:56.060Z,94.13
2022-12-15T18:17:24.227Z,112.93
2022-12-15T18:19:51.781Z,97.60
2022-12-15T18:22:25.326Z,113.17
2022-12-15T18:24:54.460Z,98.35
2022-12-15T18:27:28.198Z,101.37
2022-12-15T18:29:57.193Z,117.23
2022-12-15T18:32:27.452Z,131.13
2022-12-15T18:34:55.764Z,132.23
2022-12-15T18:37:28.273Z,131.63
2022-12-15T18:39:59.516Z,120.80
2022-12-15T18:42:31.318Z,118.90
2022-12-15T18:45:00.523Z,101.23
2022-12-15T18:47:27.984Z,105.20
2022-12-15T18:49:55.630Z,112.40
2022-12-15T18:52:27.525Z,112.97
2022-12-15T18:54:57.742Z,117.00
2022-12-15T18:57:42.915Z,113.57
2022-12-15T19:00:13.105Z,111.30
2022-12-15T19:02:41.902Z,117.17
2022-12-15T19:05:27.492Z,115.10
2022-12-15T19:08:10.212Z,115.73
2022-12-15T19:10:49.707Z,115.53
2022-12-15T19:13:22.351Z,118.47
2022-12-15T19:15:50.565Z,103.50
2022-12-15T19:18:40.626Z,110.30
2022-12-15T19:21:32.528Z,118.53
2022-12-15T19:24:00.724Z,106.47
2022-12-15T19:26:28.346Z,117.97
2022-12-15T19:28:55.827Z,115.53
2022-12-15T19:31:23.719Z,117.83
2022-12-15T19:33:51.181Z,100.03
2022-12-15T19:36:26.147Z,103.97
2022-12-15T19:38:55.805Z,109.90
2022-12-15T19:41:23.682Z,107.80
2022-12-15T19:43:51.039Z,104.07
2022-12-15T19:46:21.530Z,99.00
2022-12-15T19:48:49.061Z,92.37
2022-12-15T19:51:23.257Z,93.80
2022-12-15T19:53:50.700Z,108.00
2022-12-15T19:56:22.008Z,112.87
2022-12-15T19:58:49.641Z,120.43
2022-12-15T20:01:21.268Z,109.73
2022-12-15T20:03:52.583Z,108.90
2022-12-15T20:06:27.109Z,103.63
2022-12-15T20:08:56.983Z,98.50
2022-12-15T20:11:32.434Z,110.83
2022-12-15T20:14:01.733Z,112.57
2022-12-15T20:16:29.431Z,114.37
2022-12-15T20:18:56.742Z,110.70
2022-12-15T20:21:33.413Z,116.57
2022-12-15T20:24:18.939Z,115.73
2022-12-15T20:26:47.165Z,121.50
2022-12-15T20:29:28.567Z,116.53
2022-12-15T20:31:58.842Z,113.47
2022-12-15T20:34:26.561Z,115.20
2022-12-15T20:36:54.208Z,118.90
2022-12-15T20:39:29.541Z,115.80
2022-12-15T20:41:57.915Z,119.37
2022-12-15T20:44:25.468Z,125.87
2022-12-15T20:46:54.785Z,111.17
2022-12-15T20:49:24.196Z,114.13
2022-12-15T20:51:51.954Z,118.33
2022-12-15T20:54:22.031Z,111.53
2022-12-15T20:56:50.679Z,127.10
2022-12-15T20:59:18.485Z,109.57
2022-12-15T21:01:47.051Z,106.73
2022-12-15T21:04:28.967Z,106.53
2022-12-15T21:06:57.058Z,117.13
2022-12-15T21:09:25.128Z,114.80
2022-12-15T21:11:55.127Z,112.43
2022-12-15T21:14:24.115Z,102.00
2022-12-15T21:16:52.416Z,99.80
2022-12-15T21:19:21.616Z,102.13
2022-12-15T21:21:55.079Z,99.53
2022-12-15T21:24:28.747Z,103.90
2022-12-15T21:26:56.596Z,95.87
2022-12-15T21:29:28.286Z,94.30
2022-12-15T21:31:55.893Z,92.47
2022-12-15T21:34:23.171Z,108.60
2022-12-15T21:36:54.948Z,95.20
2022-12-15T21:39:35.580Z,104.63
2022-12-15T21:42:21.839Z,94.10
2022-12-15T21:44:49.098Z,90.90
2022-12-15T21:47:48.929Z,95.37
2022-12-15T21:50:18.812Z,97.73
2022-12-15T21:52:47.755Z,99.63
2022-12-15T21:55:26.281Z,95.40
2022-12-15T21:57:55.296Z,108.00
2022-12-15T22:00:24.330Z,116.97
2022-12-15T22:02:54.031Z,105.32
2022-12-15T22:05:21.945Z,93.37
2022-12-15T22:07:50.841Z,95.10
2022-12-15T22:10:19.298Z,84.00
2022-12-15T22:12:58.994Z,98.63
2022-12-15T22:15:28.974Z,108.07
2022-12-15T22:17:56.568Z,102.03
2022-12-15T22:20:25.450Z,94.93
2022-12-15T22:22:52.958Z,87.80
2022-12-15T22:25:24.711Z,100.03
2022-12-15T22:27:52.899Z,98.77
2022-12-15T22:30:26.963Z,99.20
2022-12-15T22:32:54.721Z,98.50
2022-12-15T22:35:27.312Z,100.83
2022-12-15T22:37:56.115Z,104.13
2022-12-15T22:40:24.613Z,113.03
2022-12-15T22:42:57.876Z,118.23
2022-12-15T22:45:25.289Z,107.27
2022-12-15T22:47:55.181Z,118.90
2022-12-15T22:50:26.958Z,107.27
2022-12-15T22:52:54.991Z,98.80
2022-12-15T22:55:24.696Z,109.03
2022-12-15T22:58:07.135Z,99.63
2022-12-15T23:00:34.618Z,103.80
2022-12-15T23:03:02.637Z,101.50
2022-12-15T23:05:29.957Z,105.90
2022-12-15T23:07:59.138Z,103.47
2022-12-15T23:10:45.366Z,102.73
2022-12-15T23:13:12.865Z,94.70
2022-12-15T23:15:58.676Z,105.93
2022-12-15T23:18:26.189Z,101.07
2022-12-15T23:20:54.024Z,107.80
2022-12-15T23:23:22.181Z,91.53
2022-12-15T23:25:49.369Z,100.57
2022-12-15T23:28:16.889Z,94.83
2022-12-15T23:30:50.302Z,88.33
2022-12-15T23:33:19.002Z,95.50
2022-12-15T23:35:46.606Z,91.07
2022-12-15T23:38:14.268Z,91.37
2022-12-15T23:40:52.776Z,87.60
2022-12-15T23:43:22.109Z,92.63
2022-12-15T23:46:03.202Z,85.73
2022-12-15T23:48:34.707Z,84.33
2022-12-15T23:51:15.563Z,84.67
2022-12-15T23:53:45.518Z,91.33
2022-12-15T23:56:15.120Z,81.30
2022-12-15T23:58:45.072Z,91.53
